createdAt,value
2018-04-14T00:00:46.385Z,47.03
2018-04-14T00:03:13.944Z,43.97
2018-04-14T00:05:41.483Z,44.37
2018-04-14T00:08:09.051Z,48.83
2018-04-14T00:10:36.598Z,44.40
2018-04-14T00:13:04.175Z,45.67
2018-04-14T00:15:31.723Z,48.87
2018-04-14T00:17:59.277Z,47.23
2018-04-14T00:20:26.837Z,50.37
2018-04-14T00:22:54.396Z,48.50
2018-04-14T00:25:21.924Z,44.17
2018-04-14T00:27:49.479Z,44.10
2018-04-14T00:30:17.008Z,44.20
2018-04-14T00:32:44.544Z,44.17
2018-04-14T00:35:12.127Z,50.23
2018-04-14T00:37:39.679Z,46.63
2018-04-14T00:40:07.220Z,45.27
2018-04-14T00:42:34.794Z,43.10
2018-04-14T00:45:02.327Z,45.47
2018-04-14T00:47:29.867Z,48.43
2018-04-14T00:49:57.421Z,43.07
2018-04-14T00:52:25.099Z,43.57
2018-04-14T00:54:52.664Z,44.83
2018-04-14T00:57:20.244Z,43.47
2018-04-14T00:59:47.903Z,41.63
2018-04-14T01:02:15.495Z,42.23
2018-04-14T01:04:43.050Z,48.53
2018-04-14T01:07:10.610Z,41.37
2018-04-14T01:09:38.177Z,43.03
2018-04-14T01:12:05.740Z,47.50
2018-04-14T01:14:33.285Z,40.40
2018-04-14T01:17:00.907Z,39.83
2018-04-14T01:19:28.673Z,43.43
2018-04-14T01:21:56.252Z,40.80
2018-04-14T01:24:23.886Z,39.10
2018-04-14T01:26:51.549Z,43.43
2018-04-14T01:29:19.176Z,34.27
2018-04-14T01:31:47.340Z,33.77
2018-04-14T01:34:14.919Z,31.97
2018-04-14T01:36:42.987Z,32.07
2018-04-14T01:39:10.551Z,31.40
2018-04-14T01:41:38.494Z,30.33
2018-04-14T01:44:06.089Z,31.67
2018-04-14T01:46:33.982Z,30.67
2018-04-14T01:49:01.559Z,27.00
2018-04-14T01:51:29.248Z,27.33
2018-04-14T01:53:56.823Z,26.83
2018-04-14T01:56:24.361Z,28.30
2018-04-14T01:58:51.951Z,26.37
2018-04-14T02:01:19.508Z,26.70
2018-04-14T02:03:47.209Z,24.33
2018-04-14T02:06:14.763Z,23.10
2018-04-14T02:08:42.424Z,19.17
2018-04-14T02:11:09.965Z,17.03
2018-04-14T02:13:37.611Z,18.00
2018-04-14T02:16:05.216Z,19.77
2018-04-14T02:18:33.392Z,17.53
2018-04-14T02:21:01.090Z,17.70
2018-04-14T02:23:29.014Z,18.10
2018-04-14T02:25:56.643Z,19.63
2018-04-14T02:28:24.573Z,17.47
2018-04-14T02:30:52.150Z,18.60
2018-04-14T02:33:20.058Z,16.33
2018-04-14T02:35:47.646Z,16.27
2018-04-14T02:38:15.195Z,16.70
2018-04-14T02:40:42.822Z,19.80
2018-04-14T02:43:10.357Z,19.57
2018-04-14T02:45:37.930Z,15.53
2018-04-14T02:48:05.498Z,15.10
2018-04-14T02:50:33.071Z,17.07
2018-04-14T02:53:00.616Z,18.23
2018-04-14T02:55:28.256Z,16.77
2018-04-14T02:57:55.836Z,15.83
2018-04-14T03:00:23.436Z,17.33
2018-04-14T03:02:50.998Z,16.13
2018-04-14T03:05:18.597Z,18.03
2018-04-14T03:07:46.171Z,16.87
2018-04-14T03:10:14.551Z,14.50
2018-04-14T03:12:42.289Z,16.60
2018-04-14T03:15:10.357Z,14.70
2018-04-14T03:17:56.005Z,17.97
2018-04-14T03:20:23.587Z,15.07
2018-04-14T03:22:51.161Z,15.13
2018-04-14T03:25:18.758Z,15.17
2018-04-14T03:27:46.311Z,14.97
2018-04-14T03:30:13.865Z,14.80
2018-04-14T03:32:41.400Z,14.97
2018-04-14T03:35:08.991Z,16.03
2018-04-14T03:40:35.228Z,16.53
2018-04-14T03:43:02.772Z,15.43
2018-04-14T03:45:30.832Z,15.20
2018-04-14T03:47:58.399Z,14.00
2018-04-14T03:50:26.338Z,16.97
2018-04-14T03:52:53.946Z,16.03
2018-04-14T03:55:21.675Z,14.70
2018-04-14T03:57:49.241Z,16.17
2018-04-14T04:00:16.772Z,14.50
2018-04-14T04:02:44.469Z,15.63
2018-04-14T04:05:12.027Z,15.80
2018-04-14T04:07:39.612Z,16.17
2018-04-14T04:10:07.169Z,13.73
2018-04-14T04:12:34.745Z,14.43
2018-04-14T04:15:02.305Z,13.07
2018-04-14T04:17:29.929Z,13.90
2018-04-14T04:20:09.278Z,13.90
2018-04-14T04:22:49.661Z,15.23
2018-04-14T04:25:30.284Z,14.70
2018-04-14T04:27:57.839Z,13.83
2018-04-14T04:30:25.417Z,15.43
2018-04-14T04:32:53.059Z,19.67
2018-04-14T04:35:20.994Z,43.13
2018-04-14T04:37:48.643Z,41.50
2018-04-14T04:40:16.611Z,60.20
2018-04-14T04:42:44.720Z,65.20
2018-04-14T04:45:12.816Z,72.90
2018-04-14T04:47:40.363Z,73.87
2018-04-14T04:50:09.164Z,84.93
2018-04-14T04:52:36.899Z,75.67
2018-04-14T04:55:04.483Z,84.43
2018-04-14T04:57:32.510Z,84.23
2018-04-14T05:00:00.304Z,80.70
2018-04-14T05:02:28.741Z,86.27
2018-04-14T05:04:56.360Z,90.93
2018-04-14T05:07:23.905Z,82.93
2018-04-14T05:09:51.483Z,82.00
2018-04-14T05:12:19.034Z,84.50
2018-04-14T05:14:46.789Z,91.63
2018-04-14T05:17:14.389Z,89.33
2018-04-14T05:19:43.067Z,90.30
2018-04-14T05:22:11.158Z,94.13
2018-04-14T05:24:40.100Z,88.03
2018-04-14T05:27:08.147Z,95.00
2018-04-14T05:29:35.733Z,92.50
2018-04-14T05:32:03.637Z,100.80
2018-04-14T05:34:31.360Z,96.37
2018-04-14T05:36:59.372Z,102.33
2018-04-14T05:39:27.049Z,92.37
2018-04-14T05:41:54.610Z,93.93
2018-04-14T05:44:22.749Z,90.03
2018-04-14T05:46:50.305Z,95.97
2018-04-14T05:49:17.873Z,93.33
2018-04-14T05:51:45.433Z,103.60
2018-04-14T05:54:13.570Z,96.17
2018-04-14T05:56:41.172Z,95.33
2018-04-14T05:59:08.990Z,100.93
2018-04-14T06:01:36.561Z,101.13
2018-04-14T06:04:04.458Z,98.83
2018-04-14T06:06:32.026Z,97.93
2018-04-14T06:08:59.614Z,103.30
2018-04-14T06:11:27.159Z,99.00
2018-04-14T06:13:54.710Z,101.47
2018-04-14T06:16:22.270Z,100.50
2018-04-14T06:18:49.827Z,94.80
2018-04-14T06:21:17.389Z,93.77
2018-04-14T06:23:44.936Z,95.63
2018-04-14T06:26:12.524Z,94.43
2018-04-14T06:28:40.085Z,99.93
2018-04-14T06:31:07.667Z,91.17
2018-04-14T06:33:35.232Z,92.80
2018-04-14T06:36:02.790Z,88.63
2018-04-14T06:38:30.377Z,87.77
2018-04-14T06:40:57.929Z,91.43
2018-04-14T06:43:25.450Z,91.10
2018-04-14T06:45:53.031Z,84.03
2018-04-14T06:48:20.604Z,86.70
2018-04-14T06:50:48.165Z,88.63
2018-04-14T06:53:15.728Z,80.63
2018-04-14T06:55:43.294Z,87.43
2018-04-14T06:58:10.835Z,83.13
2018-04-14T07:00:38.369Z,84.47
2018-04-14T07:03:06.010Z,79.33
2018-04-14T07:05:33.600Z,86.03
2018-04-14T07:08:01.162Z,81.37
2018-04-14T07:10:28.715Z,80.70
2018-04-14T07:12:56.288Z,83.90
2018-04-14T07:15:24.584Z,78.80
2018-04-14T07:17:52.125Z,72.90
2018-04-14T07:20:19.895Z,80.90
2018-04-14T07:22:47.444Z,81.77
2018-04-14T07:25:15.519Z,77.93
2018-04-14T07:27:43.100Z,85.00
2018-04-14T07:30:10.967Z,95.33
2018-04-14T07:32:38.539Z,82.70
2018-04-14T07:35:06.498Z,79.97
2018-04-14T07:37:34.068Z,88.10
2018-04-14T07:40:01.645Z,81.63
2018-04-14T07:42:29.202Z,89.07
2018-04-14T07:44:56.743Z,107.17
2018-04-14T07:47:24.355Z,109.00
2018-04-14T07:49:51.925Z,118.27
2018-04-14T07:52:19.472Z,115.80
2018-04-14T07:54:47.006Z,114.80
2018-04-14T07:57:14.572Z,114.30
2018-04-14T07:59:42.131Z,119.83
2018-04-14T08:02:09.732Z,117.03
2018-04-14T08:04:37.305Z,113.07
2018-04-14T08:07:04.879Z,103.33
2018-04-14T08:09:32.428Z,103.57
2018-04-14T08:11:59.995Z,95.53
2018-04-14T08:14:27.548Z,96.20
2018-04-14T08:16:55.095Z,93.40
2018-04-14T08:19:22.672Z,84.67
2018-04-14T08:21:50.238Z,87.37
2018-04-14T08:24:17.801Z,73.77
2018-04-14T08:26:45.370Z,78.97
2018-04-14T08:29:12.920Z,70.87
2018-04-14T08:31:40.468Z,67.30
2018-04-14T08:34:07.995Z,71.47
2018-04-14T08:36:35.518Z,74.33
2018-04-14T08:39:03.116Z,74.73
2018-04-14T08:41:30.671Z,80.77
2018-04-14T08:43:58.230Z,74.13
2018-04-14T08:46:25.774Z,72.13
2018-04-14T08:48:53.338Z,69.07
2018-04-14T08:51:20.957Z,68.77
2018-04-14T08:53:48.515Z,73.93
2018-04-14T08:56:16.147Z,71.97
2018-04-14T08:58:43.676Z,73.00
2018-04-14T09:01:11.278Z,70.77
2018-04-14T09:03:38.827Z,73.77
2018-04-14T09:06:06.384Z,71.93
2018-04-14T09:08:33.960Z,69.37
2018-04-14T09:11:01.509Z,73.33
2018-04-14T09:13:29.054Z,72.30
2018-04-14T09:15:56.659Z,70.80
2018-04-14T09:18:24.250Z,64.27
2018-04-14T09:20:51.791Z,65.23
2018-04-14T09:23:19.606Z,64.00
2018-04-14T09:25:47.184Z,67.33
2018-04-14T09:28:14.726Z,64.50
2018-04-14T09:30:42.295Z,64.87
2018-04-14T09:33:09.839Z,63.97
2018-04-14T09:35:37.514Z,56.20
2018-04-14T09:38:05.086Z,53.63
2018-04-14T09:40:32.638Z,60.40
2018-04-14T09:43:00.187Z,54.67
2018-04-14T09:45:27.845Z,53.70
2018-04-14T09:47:55.368Z,52.87
2018-04-14T09:50:23.005Z,58.90
2018-04-14T09:52:50.564Z,53.40
2018-04-14T09:55:18.154Z,56.20
2018-04-14T09:57:45.689Z,55.67
2018-04-14T10:00:18.959Z,54.93
2018-04-14T10:02:46.521Z,59.53
2018-04-14T10:05:14.097Z,56.87
2018-04-14T10:07:41.669Z,59.47
2018-04-14T10:10:09.686Z,62.30
2018-04-14T10:12:37.221Z,62.10
2018-04-14T10:15:05.199Z,62.63
2018-04-14T10:17:32.885Z,59.27
2018-04-14T10:20:00.635Z,62.77
2018-04-14T10:22:29.149Z,64.60
2018-04-14T10:24:56.707Z,60.67
2018-04-14T10:27:24.472Z,65.63
2018-04-14T10:29:52.019Z,71.67
2018-04-14T10:32:19.590Z,68.97
2018-04-14T10:34:47.125Z,69.90
2018-04-14T10:37:14.724Z,66.93
2018-04-14T10:39:42.288Z,65.83
2018-04-14T10:42:10.266Z,68.40
2018-04-14T10:44:37.802Z,63.37
2018-04-14T10:47:05.897Z,69.67
2018-04-14T10:49:33.479Z,70.13
2018-04-14T10:52:01.366Z,70.23
2018-04-14T10:54:28.926Z,72.57
2018-04-14T10:56:56.476Z,66.73
2018-04-14T10:59:24.053Z,70.97
2018-04-14T11:01:51.602Z,69.53
2018-04-14T11:04:19.173Z,69.87
2018-04-14T11:06:46.741Z,63.43
2018-04-14T11:09:14.281Z,68.23
2018-04-14T11:11:41.803Z,72.47
2018-04-14T11:14:09.350Z,72.23
2018-04-14T11:16:36.958Z,69.40
2018-04-14T11:19:04.541Z,63.63
2018-04-14T11:21:32.362Z,64.00
2018-04-14T11:23:59.920Z,66.10
2018-04-14T11:26:27.452Z,60.50
2018-04-14T11:28:55.025Z,61.87
2018-04-14T11:31:22.588Z,66.70
2018-04-14T11:33:50.293Z,67.57
2018-04-14T11:36:17.873Z,62.20
2018-04-14T11:38:45.451Z,65.93
2018-04-14T11:41:13.012Z,64.07
2018-04-14T11:43:40.568Z,62.90
2018-04-14T11:46:08.119Z,58.70
2018-04-14T11:48:35.717Z,61.37
2018-04-14T11:51:03.272Z,63.03
2018-04-14T11:53:30.876Z,63.37
2018-04-14T11:55:58.428Z,64.73
2018-04-14T11:58:26.018Z,67.30
2018-04-14T12:00:53.571Z,61.50
2018-04-14T12:03:22.208Z,59.20
2018-04-14T12:05:49.761Z,57.67
2018-04-14T12:08:17.816Z,57.60
2018-04-14T12:10:45.349Z,58.03
2018-04-14T12:13:13.227Z,61.90
2018-04-14T12:15:40.793Z,55.37
2018-04-14T12:18:08.698Z,52.37
2018-04-14T12:20:36.252Z,60.47
2018-04-14T12:23:04.062Z,51.07
2018-04-14T12:25:31.620Z,54.30
2018-04-14T12:27:59.171Z,57.17
2018-04-14T12:30:26.773Z,50.90
2018-04-14T12:32:54.318Z,48.80
2018-04-14T12:35:21.879Z,48.57
2018-04-14T12:37:49.542Z,52.87
2018-04-14T12:40:17.141Z,51.87
2018-04-14T12:42:44.686Z,50.40
2018-04-14T12:45:12.295Z,49.90
2018-04-14T12:47:39.862Z,46.13
2018-04-14T12:50:07.518Z,46.97
2018-04-14T12:52:35.025Z,47.70
2018-04-14T12:55:03.205Z,44.50
2018-04-14T12:57:30.774Z,44.53
2018-04-14T12:59:58.820Z,46.73
2018-04-14T13:02:26.361Z,48.83
2018-04-14T13:04:54.339Z,50.10
2018-04-14T13:07:21.871Z,52.67
2018-04-14T13:09:49.837Z,48.00
2018-04-14T13:12:17.412Z,47.60
2018-04-14T13:14:44.945Z,52.70
2018-04-14T13:17:12.504Z,47.33
2018-04-14T13:19:40.053Z,50.63
2018-04-14T13:22:07.692Z,49.30
2018-04-14T13:24:35.231Z,51.23
2018-04-14T13:27:02.799Z,46.83
2018-04-14T13:29:30.323Z,46.07
2018-04-14T13:31:57.895Z,47.43
2018-04-14T13:34:25.453Z,43.93
2018-04-14T13:36:53.045Z,48.73
2018-04-14T13:39:20.597Z,46.93
2018-04-14T13:41:48.204Z,43.67
2018-04-14T13:44:15.730Z,49.70
2018-04-14T13:46:43.315Z,48.23
2018-04-14T13:49:10.843Z,48.80
2018-04-14T13:51:38.463Z,46.13
2018-04-14T13:54:06.020Z,47.67
2018-04-14T13:56:33.576Z,45.60
2018-04-14T13:59:01.135Z,44.63
2018-04-14T14:01:28.716Z,46.57
2018-04-14T14:03:56.276Z,47.13
2018-04-14T14:06:23.837Z,47.47
2018-04-14T14:08:51.436Z,45.83
2018-04-14T14:11:19.035Z,46.47
2018-04-14T14:13:46.576Z,45.53
2018-04-14T14:16:14.119Z,43.17
2018-04-14T14:18:41.659Z,45.97
2018-04-14T14:21:09.302Z,45.73
2018-04-14T14:23:36.874Z,43.90
2018-04-14T14:26:04.428Z,42.63
2018-04-14T14:28:31.994Z,45.30
2018-04-14T14:31:00.128Z,43.43
2018-04-14T14:33:27.675Z,45.53
2018-04-14T14:35:55.313Z,45.50
2018-04-14T14:38:22.804Z,43.93
2018-04-14T14:40:50.365Z,43.43
2018-04-14T14:43:17.903Z,42.93
2018-04-14T14:45:45.430Z,45.40
2018-04-14T14:48:12.997Z,47.43
2018-04-14T14:50:40.547Z,45.03
2018-04-14T14:53:08.107Z,43.73
2018-04-14T14:55:36.161Z,45.43
2018-04-14T14:58:03.714Z,41.97
2018-04-14T15:00:31.756Z,43.43
2018-04-14T15:02:59.318Z,43.40
2018-04-14T15:05:27.204Z,42.17
2018-04-14T15:07:54.777Z,44.60
2018-04-14T15:10:22.357Z,44.70
2018-04-14T15:12:50.919Z,42.93
2018-04-14T15:15:18.465Z,42.77
2018-04-14T15:17:46.022Z,44.97
2018-04-14T15:20:13.579Z,43.07
2018-04-14T15:22:41.107Z,44.43
2018-04-14T15:25:08.740Z,45.17
2018-04-14T15:27:36.283Z,45.10
2018-04-14T15:30:03.840Z,45.30
2018-04-14T15:32:31.422Z,41.37
2018-04-14T15:34:58.983Z,43.87
2018-04-14T15:37:27.167Z,43.97
2018-04-14T15:39:54.724Z,39.83
2018-04-14T15:42:22.746Z,39.37
2018-04-14T15:44:50.307Z,42.37
2018-04-14T15:47:17.980Z,40.43
2018-04-14T15:49:45.524Z,39.47
2018-04-14T15:52:13.077Z,39.63
2018-04-14T15:54:40.665Z,41.53
2018-04-14T15:57:08.207Z,41.53
2018-04-14T15:59:35.757Z,38.20
2018-04-14T16:02:03.301Z,37.03
2018-04-14T16:04:30.906Z,38.23
2018-04-14T16:06:58.472Z,36.63
2018-04-14T16:09:26.101Z,38.10
2018-04-14T16:11:53.682Z,33.67
2018-04-14T16:14:21.285Z,34.70
2018-04-14T16:16:48.811Z,30.47
2018-04-14T16:19:16.447Z,36.13
2018-04-14T16:21:44.046Z,36.37
2018-04-14T16:24:11.672Z,35.40
2018-04-14T16:26:39.206Z,37.63
2018-04-14T16:29:06.783Z,37.43
2018-04-14T16:31:34.378Z,37.97
2018-04-14T16:34:01.997Z,40.63
2018-04-14T16:36:29.532Z,36.03
2018-04-14T16:38:57.635Z,37.10
2018-04-14T16:41:25.195Z,39.00
2018-04-14T16:43:53.306Z,37.33
2018-04-14T16:46:20.851Z,36.77
2018-04-14T16:48:48.715Z,37.47
2018-04-14T16:51:16.262Z,38.57
2018-04-14T16:53:44.223Z,36.13
2018-04-14T16:56:11.777Z,38.70
2018-04-14T16:58:39.314Z,38.30
2018-04-14T17:01:06.891Z,37.10
2018-04-14T17:03:34.437Z,41.27
2018-04-14T17:06:02.030Z,41.50
2018-04-14T17:08:29.607Z,36.07
2018-04-14T17:10:57.166Z,40.67
2018-04-14T17:13:24.708Z,37.57
2018-04-14T17:15:52.269Z,36.90
2018-04-14T17:18:19.798Z,36.00
2018-04-14T17:20:47.383Z,37.17
2018-04-14T17:23:14.929Z,36.43
2018-04-14T17:25:42.599Z,34.43
2018-04-14T17:28:10.152Z,41.73
2018-04-14T17:30:39.159Z,36.43
2018-04-14T17:33:06.694Z,35.30
2018-04-14T17:35:34.651Z,39.43
2018-04-14T17:38:02.228Z,37.23
2018-04-14T17:40:29.981Z,38.63
2018-04-14T17:42:57.513Z,35.23
2018-04-14T17:45:25.054Z,33.43
2018-04-14T17:47:52.592Z,38.40
2018-04-14T17:50:20.146Z,37.93
2018-04-14T17:52:47.708Z,38.33
2018-04-14T17:55:15.305Z,40.30
2018-04-14T17:57:42.869Z,41.87
2018-04-14T18:00:10.397Z,38.90
2018-04-14T18:02:37.941Z,39.37
2018-04-14T18:05:05.493Z,42.57
2018-04-14T18:07:33.022Z,42.27
2018-04-14T18:10:00.562Z,43.43
2018-04-14T18:12:28.114Z,41.10
2018-04-14T18:14:55.750Z,41.83
2018-04-14T18:17:23.360Z,42.83
2018-04-14T18:19:50.874Z,37.17
2018-04-14T18:22:18.437Z,38.90
2018-04-14T18:24:45.965Z,42.93
2018-04-14T18:27:13.529Z,38.43
2018-04-14T18:29:41.083Z,41.03
2018-04-14T18:32:08.657Z,38.77
2018-04-14T18:34:36.194Z,37.13
2018-04-14T18:37:03.778Z,40.37
2018-04-14T18:39:31.316Z,40.97
2018-04-14T18:41:58.883Z,43.10
2018-04-14T18:44:26.426Z,41.10
2018-04-14T18:46:53.971Z,39.33
2018-04-14T18:49:21.535Z,34.93
2018-04-14T18:51:49.076Z,36.43
2018-04-14T18:54:16.631Z,36.83
2018-04-14T18:56:44.210Z,37.40
2018-04-14T18:59:11.739Z,32.60
2018-04-14T19:01:39.289Z,34.37
2018-04-14T19:04:06.837Z,37.27
2018-04-14T19:06:34.439Z,32.93
2018-04-14T19:09:01.960Z,34.50
2018-04-14T19:11:29.527Z,35.30
2018-04-14T19:13:57.083Z,35.40
2018-04-14T19:16:24.655Z,36.60
2018-04-14T19:18:52.200Z,40.23
2018-04-14T19:21:19.739Z,42.33
2018-04-14T19:23:50.223Z,45.47
2018-04-14T19:26:17.781Z,43.00
2018-04-14T19:28:45.361Z,40.90
2018-04-14T19:31:12.890Z,49.57
2018-04-14T19:33:40.460Z,47.30
2018-04-14T19:36:08.018Z,49.20
2018-04-14T19:38:35.605Z,48.80
2018-04-14T19:41:03.155Z,42.30
2018-04-14T19:43:30.725Z,39.67
2018-04-14T19:45:58.272Z,36.27
2018-04-14T19:48:25.865Z,37.83
2018-04-14T19:50:53.400Z,33.50
2018-04-14T19:53:21.571Z,34.27
2018-04-14T19:55:49.091Z,35.73
2018-04-14T19:58:16.793Z,35.67
2018-04-14T20:00:44.337Z,34.27
2018-04-14T20:03:13.025Z,34.60
2018-04-14T20:05:40.606Z,34.63
2018-04-14T20:08:08.711Z,34.43
2018-04-14T20:10:36.266Z,36.07
2018-04-14T20:13:04.471Z,32.60
2018-04-14T20:15:32.029Z,34.17
2018-04-14T20:17:59.666Z,38.23
2018-04-14T20:20:27.229Z,33.63
2018-04-14T20:22:54.772Z,36.83
2018-04-14T20:25:22.407Z,41.07
2018-04-14T20:27:49.953Z,33.83
2018-04-14T20:30:17.527Z,36.57
2018-04-14T20:32:45.080Z,40.30
2018-04-14T20:35:12.669Z,37.30
2018-04-14T20:37:40.204Z,38.23
2018-04-14T20:40:07.757Z,41.87
2018-04-14T20:42:35.289Z,39.27
2018-04-14T20:45:02.874Z,41.10
2018-04-14T20:47:30.404Z,38.80
2018-04-14T20:49:58.011Z,39.63
2018-04-14T20:52:25.583Z,41.47
2018-04-14T20:54:53.778Z,41.40
2018-04-14T20:57:21.369Z,45.43
2018-04-14T20:59:49.490Z,46.00
2018-04-14T21:02:17.053Z,49.30
2018-04-14T21:04:44.951Z,42.93
2018-04-14T21:07:12.576Z,45.73
2018-04-14T21:09:40.396Z,47.13
2018-04-14T21:12:07.981Z,44.90
2018-04-14T21:14:35.515Z,47.73
2018-04-14T21:17:03.061Z,45.63
2018-04-14T21:19:30.588Z,50.00
2018-04-14T21:21:58.131Z,47.60
2018-04-14T21:24:25.731Z,45.77
2018-04-14T21:26:53.324Z,50.47
2018-04-14T21:29:20.846Z,49.17
2018-04-14T21:31:48.455Z,50.37
2018-04-14T21:34:15.987Z,49.43
2018-04-14T21:36:43.579Z,48.67
2018-04-14T21:39:11.130Z,50.53
2018-04-14T21:41:38.710Z,49.37
2018-04-14T21:44:06.250Z,50.37
2018-04-14T21:46:33.830Z,53.73
2018-04-14T21:49:01.378Z,56.33
2018-04-14T21:51:28.930Z,53.43
2018-04-14T21:53:56.471Z,55.87
2018-04-14T21:56:24.065Z,60.37
2018-04-14T21:58:51.591Z,55.60
2018-04-14T22:01:19.161Z,57.70
2018-04-14T22:03:46.700Z,62.57
2018-04-14T22:06:14.347Z,55.70
2018-04-14T22:08:41.914Z,64.63
2018-04-14T22:11:10.137Z,58.50
2018-04-14T22:13:37.729Z,58.80
2018-04-14T22:16:05.806Z,56.60
2018-04-14T22:18:33.371Z,61.40
2018-04-14T22:21:01.252Z,61.57
2018-04-14T22:23:28.811Z,58.97
2018-04-14T22:25:56.699Z,57.23
2018-04-14T22:28:24.274Z,64.77
2018-04-14T22:30:51.795Z,60.37
2018-04-14T22:33:19.451Z,62.10
2018-04-14T22:35:46.990Z,60.03
2018-04-14T22:38:14.577Z,62.10
2018-04-14T22:40:42.165Z,59.53
2018-04-14T22:43:09.789Z,59.93
2018-04-14T22:45:37.310Z,56.20
2018-04-14T22:48:04.850Z,62.43
2018-04-14T22:50:32.400Z,60.80
2018-04-14T22:52:59.972Z,62.20
2018-04-14T22:55:27.529Z,59.00
2018-04-14T22:57:55.105Z,63.43
2018-04-14T23:00:22.648Z,55.57
2018-04-14T23:02:50.219Z,54.13
2018-04-14T23:05:17.758Z,55.07
2018-04-14T23:07:45.330Z,56.67
2018-04-14T23:10:12.885Z,56.63
2018-04-14T23:12:41.140Z,57.33
2018-04-14T23:15:08.675Z,59.27
2018-04-14T23:17:36.743Z,59.07
2018-04-14T23:20:04.315Z,56.67
2018-04-14T23:22:32.197Z,55.00
2018-04-14T23:24:59.811Z,45.20
2018-04-14T23:27:27.630Z,40.13
2018-04-14T23:29:55.239Z,34.10
2018-04-14T23:32:22.804Z,30.70
2018-04-14T23:34:50.385Z,32.97
2018-04-14T23:37:17.937Z,30.40
2018-04-14T23:39:45.485Z,30.93
2018-04-14T23:42:13.041Z,27.60
2018-04-14T23:44:40.604Z,26.43
2018-04-14T23:47:08.160Z,24.80
2018-04-14T23:49:35.739Z,24.60
2018-04-14T23:52:03.270Z,26.40
2018-04-14T23:54:30.830Z,23.60
2018-04-14T23:56:58.357Z,24.10
2018-04-14T23:59:25.981Z,23.17
